createdAt,value
2018-12-12T00:00:55.213Z,4.93
2018-12-12T00:03:28.271Z,1.57
2018-12-12T00:06:01.473Z,1.63
2018-12-12T00:08:32.471Z,1.57
2018-12-12T00:11:03.172Z,1.00
2018-12-12T00:13:33.971Z,1.13
2018-12-12T00:16:04.821Z,1.23
2018-12-12T00:18:36.031Z,3.43
2018-12-12T00:21:08.452Z,1.70
2018-12-12T00:23:39.456Z,2.00
2018-12-12T00:26:10.452Z,1.23
2018-12-12T00:28:41.434Z,2.27
2018-12-12T00:31:12.479Z,1.77
2018-12-12T00:33:43.145Z,1.50
2018-12-12T00:36:14.113Z,1.43
2018-12-12T00:38:45.051Z,1.97
2018-12-12T00:41:16.414Z,1.50
2018-12-12T00:43:47.452Z,2.50
2018-12-12T00:46:18.813Z,1.83
2018-12-12T00:48:50.191Z,2.07
2018-12-12T00:51:21.633Z,1.93
2018-12-12T00:53:52.683Z,2.23
2018-12-12T00:56:23.632Z,2.27
2018-12-12T00:58:54.672Z,1.93
2018-12-12T01:01:26.012Z,1.10
2018-12-12T01:07:33.113Z,1.60
2018-12-12T01:10:03.825Z,2.70
2018-12-12T01:12:34.813Z,4.40
2018-12-12T01:15:06.035Z,3.53
2018-12-12T01:17:36.993Z,1.37
2018-12-12T01:20:08.277Z,1.57
2018-12-12T01:22:39.611Z,1.53
2018-12-12T01:25:10.012Z,1.37
2018-12-12T01:27:40.573Z,1.97
2018-12-12T01:30:11.797Z,1.40
2018-12-12T01:32:43.385Z,1.50
2018-12-12T01:35:14.435Z,1.70
2018-12-12T01:37:45.474Z,1.20
2018-12-12T01:40:16.333Z,1.73
2018-12-12T01:42:50.409Z,1.57
2018-12-12T01:45:21.531Z,1.57
2018-12-12T01:47:52.374Z,1.10
2018-12-12T01:50:23.634Z,1.40
2018-12-12T01:52:55.666Z,0.70
2018-12-12T01:55:26.236Z,1.17
2018-12-12T01:57:57.433Z,1.30
2018-12-12T02:00:28.670Z,1.00
2018-12-12T02:06:58.753Z,1.13
2018-12-12T02:09:29.933Z,1.40
2018-12-12T02:12:00.154Z,1.00
2018-12-12T02:14:31.012Z,1.50
2018-12-12T02:17:01.773Z,1.20
2018-12-12T02:19:32.086Z,1.33
2018-12-12T02:22:02.333Z,1.40
2018-12-12T02:24:33.014Z,1.20
2018-12-12T02:27:04.161Z,1.30
2018-12-12T02:29:35.233Z,1.17
2018-12-12T02:32:05.684Z,1.13
2018-12-12T02:34:36.172Z,1.10
2018-12-12T02:37:06.692Z,2.10
2018-12-12T02:39:37.554Z,2.30
2018-12-12T02:42:08.255Z,2.70
2018-12-12T02:44:38.365Z,2.97
2018-12-12T02:47:09.075Z,2.83
2018-12-12T02:49:39.977Z,2.77
2018-12-12T02:52:10.513Z,2.30
2018-12-12T02:54:40.674Z,2.43
2018-12-12T02:57:10.882Z,2.70
2018-12-12T03:03:18.613Z,1.70
2018-12-12T03:05:49.101Z,1.37
2018-12-12T03:08:19.792Z,1.60
2018-12-12T03:10:50.832Z,1.47
2018-12-12T03:13:21.262Z,1.37
2018-12-12T03:15:51.653Z,1.47
2018-12-12T03:18:21.930Z,1.30
2018-12-12T03:20:52.450Z,1.07
2018-12-12T03:23:22.652Z,1.47
2018-12-12T03:25:53.013Z,1.43
2018-12-12T03:28:24.495Z,1.53
2018-12-12T03:30:55.313Z,2.83
2018-12-12T03:33:25.550Z,1.60
2018-12-12T03:35:56.132Z,1.80
2018-12-12T03:38:26.519Z,1.43
2018-12-12T03:40:57.573Z,3.73
2018-12-12T03:43:28.294Z,1.73
2018-12-12T03:45:59.090Z,2.10
2018-12-12T03:48:29.404Z,3.77
2018-12-12T03:51:00.511Z,3.40
2018-12-12T03:53:31.941Z,3.10
2018-12-12T03:56:02.063Z,1.13
2018-12-12T03:58:32.712Z,0.70
2018-12-12T04:01:03.092Z,1.30
2018-12-12T04:03:35.771Z,1.30
2018-12-12T04:06:06.756Z,1.37
2018-12-12T04:08:37.294Z,1.20
2018-12-12T04:11:07.691Z,1.53
2018-12-12T04:13:38.812Z,1.20
2018-12-12T04:16:09.370Z,1.07
2018-12-12T04:18:39.576Z,0.80
2018-12-12T04:21:11.343Z,1.10
2018-12-12T04:23:41.875Z,1.00
2018-12-12T04:26:12.653Z,0.90
2018-12-12T04:28:43.455Z,1.00
2018-12-12T04:31:13.911Z,1.10
2018-12-12T04:33:44.932Z,1.27
2018-12-12T04:36:16.352Z,1.13
2018-12-12T04:38:46.591Z,1.30
2018-12-12T04:41:17.481Z,1.43
2018-12-12T04:43:48.134Z,1.00
2018-12-12T04:46:19.326Z,1.00
2018-12-12T04:48:50.491Z,1.23
2018-12-12T04:51:21.268Z,0.97
2018-12-12T04:53:51.474Z,0.83
2018-12-12T04:56:22.074Z,0.90
2018-12-12T04:58:52.927Z,0.90
2018-12-12T05:01:24.111Z,1.17
2018-12-12T05:03:55.229Z,1.70
2018-12-12T05:06:25.431Z,0.80
2018-12-12T05:08:56.272Z,1.40
2018-12-12T05:11:26.615Z,1.27
2018-12-12T05:13:57.351Z,0.90
2018-12-12T05:16:34.971Z,1.07
2018-12-12T05:19:05.683Z,1.03
2018-12-12T05:21:36.251Z,1.03
2018-12-12T05:24:06.751Z,1.67
2018-12-12T05:26:38.331Z,1.20
2018-12-12T05:29:08.673Z,1.40
2018-12-12T05:31:39.011Z,2.27
2018-12-12T05:34:10.292Z,1.70
2018-12-12T05:36:41.250Z,1.87
2018-12-12T05:39:12.572Z,1.43
2018-12-12T05:41:42.707Z,1.27
2018-12-12T05:44:13.410Z,1.50
2018-12-12T05:46:43.792Z,1.90
2018-12-12T05:49:14.340Z,1.60
2018-12-12T05:51:44.830Z,1.40
2018-12-12T05:54:16.592Z,1.40
2018-12-12T05:56:52.319Z,1.90
2018-12-12T05:59:19.668Z,1.77
2018-12-12T06:01:50.174Z,1.40
2018-12-12T06:04:21.216Z,2.23
2018-12-12T06:06:52.336Z,1.63
2018-12-12T06:09:23.209Z,1.17
2018-12-12T06:11:53.611Z,1.27
2018-12-12T06:14:24.231Z,1.40
2018-12-12T06:16:55.130Z,1.60
2018-12-12T06:19:25.732Z,1.50
2018-12-12T06:21:56.511Z,1.73
2018-12-12T06:24:27.511Z,1.47
2018-12-12T06:26:57.691Z,1.57
2018-12-12T06:29:28.572Z,1.60
2018-12-12T06:31:59.075Z,1.60
2018-12-12T06:34:30.331Z,1.70
2018-12-12T06:37:01.852Z,1.43
2018-12-12T06:39:32.871Z,2.03
2018-12-12T06:42:03.471Z,1.50
2018-12-12T06:44:34.371Z,1.60
2018-12-12T06:47:05.091Z,1.87
2018-12-12T06:49:35.611Z,1.73
2018-12-12T06:52:06.170Z,2.27
2018-12-12T06:54:37.175Z,1.97
2018-12-12T06:57:08.531Z,1.07
2018-12-12T06:59:39.166Z,1.47
2018-12-12T07:02:10.191Z,2.80
2018-12-12T07:04:41.531Z,2.40
2018-12-12T07:07:12.970Z,2.20
2018-12-12T07:09:43.992Z,1.80
2018-12-12T07:12:14.334Z,1.80
2018-12-12T07:14:44.890Z,1.80
2018-12-12T07:17:15.130Z,2.07
2018-12-12T07:19:45.532Z,2.17
2018-12-12T07:22:16.171Z,1.63
2018-12-12T07:24:46.772Z,1.33
2018-12-12T07:27:17.132Z,1.50
2018-12-12T07:29:47.793Z,1.30
2018-12-12T07:32:18.812Z,1.90
2018-12-12T07:34:49.491Z,0.80
2018-12-12T07:37:19.636Z,1.70
2018-12-12T07:39:50.292Z,1.47
2018-12-12T07:42:20.675Z,1.80
2018-12-12T07:44:57.091Z,1.80
2018-12-12T07:47:30.175Z,0.90
2018-12-12T07:50:17.412Z,1.93
2018-12-12T07:53:07.678Z,1.70
2018-12-12T07:55:38.350Z,1.43
2018-12-12T07:58:10.250Z,1.87
2018-12-12T08:00:40.890Z,2.17
2018-12-12T08:03:11.958Z,1.57
2018-12-12T08:05:43.413Z,2.13
2018-12-12T08:08:14.311Z,1.60
2018-12-12T08:10:44.731Z,4.53
2018-12-12T08:13:15.831Z,1.87
2018-12-12T08:15:46.172Z,1.60
2018-12-12T08:18:16.931Z,1.40
2018-12-12T08:20:47.511Z,1.07
2018-12-12T08:23:18.048Z,1.23
2018-12-12T08:25:48.771Z,1.00
2018-12-12T08:28:19.792Z,1.17
2018-12-12T08:30:50.490Z,1.13
2018-12-12T08:33:21.355Z,3.07
2018-12-12T08:35:51.679Z,0.70
2018-12-12T08:38:22.111Z,0.80
2018-12-12T08:40:53.192Z,0.63
2018-12-12T08:43:24.311Z,1.33
2018-12-12T08:45:55.011Z,0.57
2018-12-12T08:48:25.822Z,0.57
2018-12-12T08:50:56.327Z,0.47
2018-12-12T08:53:26.991Z,0.60
2018-12-12T08:55:57.391Z,0.50
2018-12-12T08:58:28.172Z,0.50
2018-12-12T09:00:58.419Z,0.70
2018-12-12T09:03:28.771Z,1.97
2018-12-12T09:05:59.311Z,0.50
2018-12-12T09:08:29.831Z,1.33
2018-12-12T09:11:00.792Z,1.90
2018-12-12T09:13:32.553Z,3.17
2018-12-12T09:16:03.312Z,1.53
2018-12-12T09:18:35.032Z,1.83
2018-12-12T09:21:05.972Z,1.67
2018-12-12T09:23:36.952Z,1.20
2018-12-12T09:26:07.351Z,0.77
2018-12-12T09:28:38.011Z,1.07
2018-12-12T09:31:11.311Z,3.07
2018-12-12T09:33:44.174Z,1.73
2018-12-12T09:36:15.611Z,0.83
2018-12-12T09:38:46.230Z,0.87
2018-12-12T09:41:17.231Z,1.63
2018-12-12T09:43:47.541Z,1.27
2018-12-12T09:46:17.832Z,0.93
2018-12-12T09:48:49.692Z,0.67
2018-12-12T09:51:20.171Z,0.90
2018-12-12T09:53:52.610Z,0.97
2018-12-12T09:56:23.291Z,0.80
2018-12-12T09:58:54.352Z,0.70
2018-12-12T10:01:24.911Z,1.03
2018-12-12T10:03:55.291Z,4.47
2018-12-12T10:06:25.950Z,2.00
2018-12-12T10:08:57.584Z,0.87
2018-12-12T10:11:28.931Z,1.03
2018-12-12T10:13:59.279Z,3.43
2018-12-12T10:16:29.631Z,1.20
2018-12-12T10:19:00.091Z,1.27
2018-12-12T10:21:37.031Z,1.47
2018-12-12T10:24:07.760Z,1.77
2018-12-12T10:26:45.674Z,1.27
2018-12-12T10:29:16.651Z,1.17
2018-12-12T10:31:48.871Z,1.10
2018-12-12T10:34:20.750Z,4.97
2018-12-12T10:36:51.773Z,3.23
2018-12-12T10:39:22.409Z,1.83
2018-12-12T10:41:53.530Z,1.37
2018-12-12T10:44:24.130Z,0.77
2018-12-12T10:46:54.551Z,1.80
2018-12-12T10:49:26.011Z,0.70
2018-12-12T10:51:56.432Z,0.60
2018-12-12T10:54:27.149Z,0.90
2018-12-12T10:56:57.393Z,0.87
2018-12-12T10:59:27.737Z,0.70
2018-12-12T11:02:03.772Z,0.70
2018-12-12T11:04:35.531Z,1.70
2018-12-12T11:07:06.111Z,1.10
2018-12-12T11:09:36.655Z,1.00
2018-12-12T11:12:07.171Z,3.20
2018-12-12T11:14:38.355Z,2.33
2018-12-12T11:17:09.311Z,1.63
2018-12-12T11:19:40.271Z,0.70
2018-12-12T11:22:10.416Z,1.33
2018-12-12T11:24:41.210Z,1.20
2018-12-12T11:27:12.031Z,3.03
2018-12-12T11:29:44.577Z,2.33
2018-12-12T11:32:16.250Z,1.90
2018-12-12T11:34:46.710Z,2.23
2018-12-12T11:37:17.051Z,1.60
2018-12-12T11:39:47.553Z,1.23
2018-12-12T11:42:18.230Z,1.90
2018-12-12T11:44:48.570Z,2.30
2018-12-12T11:47:19.038Z,1.00
2018-12-12T11:49:49.390Z,1.40
2018-12-12T11:52:20.031Z,3.87
2018-12-12T11:54:50.871Z,1.80
2018-12-12T11:57:21.592Z,1.70
2018-12-12T11:59:52.351Z,1.70
2018-12-12T12:02:22.731Z,2.20
2018-12-12T12:04:53.598Z,1.33
2018-12-12T12:07:23.973Z,2.07
2018-12-12T12:09:54.755Z,1.50
2018-12-12T12:12:25.990Z,1.00
2018-12-12T12:14:57.570Z,1.10
2018-12-12T12:17:28.390Z,1.57
2018-12-12T12:19:58.811Z,1.40
2018-12-12T12:22:29.333Z,1.33
2018-12-12T12:25:00.051Z,1.40
2018-12-12T12:27:30.711Z,1.13
2018-12-12T12:30:01.151Z,1.70
2018-12-12T12:32:33.190Z,1.03
2018-12-12T12:35:03.534Z,2.43
2018-12-12T12:37:33.870Z,1.20
2018-12-12T12:40:05.871Z,1.40
2018-12-12T12:42:36.494Z,1.17
2018-12-12T12:45:07.084Z,1.40
2018-12-12T12:47:38.524Z,1.23
2018-12-12T12:50:09.092Z,2.80
2018-12-12T12:52:39.730Z,2.00
2018-12-12T12:55:10.190Z,1.97
2018-12-12T12:57:40.938Z,2.33
2018-12-12T13:00:11.811Z,1.13
2018-12-12T13:02:42.371Z,1.00
2018-12-12T13:05:12.848Z,1.27
2018-12-12T13:07:43.131Z,1.17
2018-12-12T13:10:13.832Z,1.57
2018-12-12T13:12:44.890Z,3.83
2018-12-12T13:15:15.969Z,1.53
2018-12-12T13:17:46.311Z,1.40
2018-12-12T13:20:16.771Z,1.13
2018-12-12T13:22:47.411Z,1.40
2018-12-12T13:25:17.690Z,1.53
2018-12-12T13:27:48.010Z,1.73
2018-12-12T13:30:18.290Z,2.00
2018-12-12T13:32:48.671Z,6.93
2018-12-12T13:35:19.292Z,3.37
2018-12-12T13:37:49.777Z,2.50
2018-12-12T13:40:20.252Z,2.87
2018-12-12T13:42:50.190Z,2.13
2018-12-12T13:45:21.252Z,4.73
2018-12-12T13:47:51.751Z,1.63
2018-12-12T13:50:24.133Z,1.67
2018-12-12T13:52:56.111Z,4.67
2018-12-12T13:55:27.533Z,1.67
2018-12-12T13:57:58.392Z,3.93
2018-12-12T14:00:28.685Z,2.37
2018-12-12T14:02:59.452Z,1.73
2018-12-12T14:05:30.491Z,3.03
2018-12-12T14:08:01.811Z,5.70
2018-12-12T14:10:32.431Z,4.73
2018-12-12T14:13:02.857Z,8.60
2018-12-12T14:15:33.211Z,2.70
2018-12-12T14:18:03.447Z,2.30
2018-12-12T14:20:33.911Z,1.97
2018-12-12T14:23:04.573Z,2.33
2018-12-12T14:25:35.573Z,2.00
2018-12-12T14:28:05.977Z,2.00
2018-12-12T14:30:36.731Z,1.70
2018-12-12T14:33:07.511Z,2.03
2018-12-12T14:35:37.836Z,1.60
2018-12-12T14:38:08.291Z,1.57
2018-12-12T14:40:38.993Z,1.60
2018-12-12T14:43:09.353Z,1.73
2018-12-12T14:45:40.212Z,3.03
2018-12-12T14:48:10.551Z,3.43
2018-12-12T14:50:40.892Z,2.03
2018-12-12T14:53:11.392Z,2.87
2018-12-12T14:56:00.122Z,2.80
2018-12-12T14:58:30.752Z,2.87
2018-12-12T15:01:00.975Z,3.37
2018-12-12T15:03:32.141Z,2.37
2018-12-12T15:06:02.614Z,1.67
2018-12-12T15:08:33.013Z,1.67
2018-12-12T15:11:04.007Z,1.70
2018-12-12T15:13:34.795Z,4.37
2018-12-12T15:16:05.602Z,2.33
2018-12-12T15:18:36.132Z,3.20
2018-12-12T15:21:06.559Z,2.17
2018-12-12T15:23:37.199Z,2.30
2018-12-12T15:26:07.838Z,2.47
2018-12-12T15:28:43.068Z,3.23
2018-12-12T15:31:13.356Z,2.67
2018-12-12T15:33:43.915Z,4.27
2018-12-12T15:36:14.341Z,4.17
2018-12-12T15:38:44.992Z,3.07
2018-12-12T15:41:16.018Z,3.17
2018-12-12T15:43:46.613Z,2.07
2018-12-12T15:46:17.871Z,2.30
2018-12-12T15:48:49.814Z,2.33
2018-12-12T15:51:20.184Z,2.07
2018-12-12T15:53:50.288Z,2.43
2018-12-12T15:56:20.446Z,2.30
2018-12-12T15:58:50.611Z,4.13
2018-12-12T16:01:20.971Z,2.57
2018-12-12T16:03:51.845Z,3.67
2018-12-12T16:06:22.104Z,3.00
2018-12-12T16:08:53.111Z,2.53
2018-12-12T16:11:23.432Z,2.87
2018-12-12T16:13:54.732Z,3.13
2018-12-12T16:16:25.452Z,3.97
2018-12-12T16:18:55.616Z,4.17
2018-12-12T16:21:26.930Z,3.37
2018-12-12T16:23:57.991Z,5.37
2018-12-12T16:26:28.793Z,3.20
2018-12-12T16:28:59.852Z,4.93
2018-12-12T16:31:30.812Z,4.80
2018-12-12T16:34:01.934Z,4.57
2018-12-12T16:36:32.554Z,7.40
2018-12-12T16:39:03.472Z,5.43
2018-12-12T16:41:36.593Z,4.77
2018-12-12T16:44:07.084Z,4.47
2018-12-12T16:46:43.410Z,5.57
2018-12-12T16:49:14.045Z,4.70
2018-12-12T16:51:44.516Z,3.93
2018-12-12T16:54:15.932Z,8.47
2018-12-12T16:56:46.272Z,4.53
2018-12-12T16:59:17.009Z,4.50
2018-12-12T17:01:47.753Z,8.27
2018-12-12T17:04:18.511Z,4.33
2018-12-12T17:06:48.912Z,7.17
2018-12-12T17:09:38.972Z,6.43
2018-12-12T17:12:11.320Z,8.63
2018-12-12T17:15:05.895Z,5.70
2018-12-12T17:17:58.349Z,6.33
2018-12-12T17:20:30.226Z,6.20
2018-12-12T17:23:15.719Z,4.97
2018-12-12T17:26:17.905Z,4.03
2018-12-12T17:28:53.883Z,2.47
2018-12-12T17:31:26.319Z,2.83
2018-12-12T17:34:00.056Z,4.97
2018-12-12T17:36:35.906Z,5.50
2018-12-12T17:39:08.708Z,3.40
2018-12-12T17:41:39.812Z,3.27
2018-12-12T17:44:10.499Z,4.23
2018-12-12T17:46:42.672Z,5.63
2018-12-12T17:49:13.491Z,7.30
2018-12-12T17:51:43.642Z,4.03
2018-12-12T17:54:14.291Z,6.10
2018-12-12T17:56:44.918Z,4.67
2018-12-12T17:59:15.952Z,4.60
2018-12-12T18:01:47.460Z,4.07
2018-12-12T18:04:37.060Z,4.47
2018-12-12T18:07:08.093Z,3.60
2018-12-12T18:09:41.025Z,4.07
2018-12-12T18:12:12.272Z,4.77
2018-12-12T18:14:43.525Z,4.87
2018-12-12T18:17:16.271Z,4.37
2018-12-12T18:19:46.691Z,4.87
2018-12-12T18:22:17.372Z,5.90
2018-12-12T18:24:50.193Z,3.33
2018-12-12T18:27:20.707Z,3.60
2018-12-12T18:29:51.312Z,3.57
2018-12-12T18:32:23.792Z,4.27
2018-12-12T18:35:00.104Z,4.03
2018-12-12T18:37:41.231Z,3.50
2018-12-12T18:40:11.592Z,4.10
2018-12-12T18:42:44.092Z,4.67
2018-12-12T18:45:15.773Z,4.13
2018-12-12T18:47:46.817Z,5.37
2018-12-12T18:50:19.514Z,4.63
2018-12-12T18:52:52.612Z,5.50
2018-12-12T18:55:23.451Z,4.30
2018-12-12T18:57:54.292Z,5.43
2018-12-12T19:00:24.734Z,4.47
2018-12-12T19:02:55.052Z,5.70
2018-12-12T19:05:28.388Z,4.87
2018-12-12T19:07:59.373Z,4.33
2018-12-12T19:10:30.333Z,5.10
2018-12-12T19:13:01.212Z,8.47
2018-12-12T19:15:32.751Z,5.70
2018-12-12T19:18:03.174Z,6.07
2018-12-12T19:20:35.312Z,7.03
2018-12-12T19:23:06.193Z,7.60
2018-12-12T19:25:36.872Z,5.13
2018-12-12T19:28:07.451Z,8.17
2018-12-12T19:30:38.323Z,8.47
2018-12-12T19:33:09.211Z,9.67
2018-12-12T19:35:40.550Z,6.97
2018-12-12T19:38:11.773Z,4.03
2018-12-12T19:40:43.214Z,8.63
2018-12-12T19:43:13.951Z,5.43
2018-12-12T19:45:46.275Z,7.00
2018-12-12T19:48:16.927Z,5.07
2018-12-12T19:50:48.311Z,4.83
2018-12-12T19:53:19.097Z,6.13
2018-12-12T19:55:50.971Z,6.37
2018-12-12T19:58:27.033Z,7.53
2018-12-12T20:00:59.194Z,5.97
2018-12-12T20:03:31.971Z,5.93
2018-12-12T20:06:04.379Z,7.37
2018-12-12T20:08:36.119Z,8.10
2018-12-12T20:11:08.832Z,6.53
2018-12-12T20:13:39.791Z,4.50
2018-12-12T20:16:10.532Z,5.17
2018-12-12T20:18:41.213Z,6.33
2018-12-12T20:21:11.521Z,7.77
2018-12-12T20:23:42.192Z,4.13
2018-12-12T20:26:13.321Z,6.63
2018-12-12T20:28:44.992Z,8.77
2018-12-12T20:31:16.315Z,7.80
2018-12-12T20:33:48.956Z,6.87
2018-12-12T20:36:20.593Z,9.77
2018-12-12T20:38:51.795Z,6.60
2018-12-12T20:41:22.632Z,8.63
2018-12-12T20:43:53.153Z,10.83
2018-12-12T20:46:23.573Z,9.73
2018-12-12T20:48:54.493Z,13.93
2018-12-12T20:51:25.279Z,9.10
2018-12-12T20:53:55.493Z,8.53
2018-12-12T20:56:27.132Z,5.83
2018-12-12T20:58:57.871Z,7.90
2018-12-12T21:01:30.353Z,7.30
2018-12-12T21:04:01.888Z,7.87
2018-12-12T21:06:32.573Z,7.27
2018-12-12T21:09:04.751Z,7.00
2018-12-12T21:11:35.256Z,6.37
2018-12-12T21:14:06.673Z,5.23
2018-12-12T21:16:37.872Z,7.90
2018-12-12T21:19:09.869Z,6.63
2018-12-12T21:21:41.451Z,7.87
2018-12-12T21:24:12.232Z,11.87
2018-12-12T21:26:42.612Z,7.60
2018-12-12T21:29:14.193Z,7.87
2018-12-12T21:31:44.592Z,10.70
2018-12-12T21:34:15.695Z,10.73
2018-12-12T21:36:46.111Z,9.00
2018-12-12T21:39:16.463Z,6.80
2018-12-12T21:41:47.313Z,7.60
2018-12-12T21:44:17.874Z,8.67
2018-12-12T21:46:48.253Z,8.17
2018-12-12T21:49:19.371Z,6.23
2018-12-12T21:51:50.973Z,7.87
2018-12-12T21:54:21.912Z,7.43
2018-12-12T21:56:52.752Z,5.57
2018-12-12T21:59:23.591Z,5.47
2018-12-12T22:01:53.869Z,7.63
2018-12-12T22:04:24.972Z,6.73
2018-12-12T22:06:55.937Z,9.33
2018-12-12T22:09:27.032Z,8.63
2018-12-12T22:11:57.589Z,9.40
2018-12-12T22:14:29.372Z,8.10
2018-12-12T22:16:59.891Z,7.00
2018-12-12T22:19:30.831Z,7.97
2018-12-12T22:22:01.872Z,7.70
2018-12-12T22:24:32.371Z,9.13
2018-12-12T22:27:02.991Z,8.80
2018-12-12T22:29:33.512Z,8.73
2018-12-12T22:32:04.199Z,10.43
2018-12-12T22:34:34.492Z,7.07
2018-12-12T22:37:05.530Z,7.23
2018-12-12T22:39:36.358Z,8.50
2018-12-12T22:42:06.781Z,10.23
2018-12-12T22:44:38.331Z,8.90
2018-12-12T22:47:08.792Z,10.47
2018-12-12T22:49:39.471Z,16.17
2018-12-12T22:52:09.911Z,8.97
2018-12-12T22:54:40.164Z,7.23
2018-12-12T22:57:11.012Z,15.43
2018-12-12T22:59:42.032Z,16.30
2018-12-12T23:02:12.751Z,8.90
2018-12-12T23:04:44.113Z,7.40
2018-12-12T23:07:14.102Z,5.00
2018-12-12T23:09:44.490Z,4.47
2018-12-12T23:12:14.752Z,7.90
2018-12-12T23:14:44.912Z,15.10
2018-12-12T23:17:15.251Z,9.20
2018-12-12T23:19:46.503Z,6.97
2018-12-12T23:22:18.871Z,8.43
2018-12-12T23:24:49.530Z,4.50
2018-12-12T23:27:20.237Z,4.93
2018-12-12T23:29:50.199Z,8.80
2018-12-12T23:32:20.739Z,7.53
2018-12-12T23:34:54.731Z,11.40
2018-12-12T23:37:25.490Z,13.33
2018-12-12T23:40:04.210Z,11.43
2018-12-12T23:42:34.835Z,13.30
2018-12-12T23:45:06.170Z,8.97
2018-12-12T23:47:37.256Z,12.13
2018-12-12T23:50:08.470Z,12.90
2018-12-12T23:52:39.293Z,15.20
2018-12-12T23:55:10.089Z,15.90
2018-12-12T23:57:41.810Z,16.30
